createdAt,value
2018-05-27T00:00:18.838Z,7.70
2018-05-27T00:01:18.875Z,6.90
2018-05-27T00:02:18.909Z,7.20
2018-05-27T00:03:18.947Z,6.90
2018-05-27T00:04:18.983Z,7.30
2018-05-27T00:05:19.020Z,7.20
2018-05-27T00:06:19.058Z,7.50
2018-05-27T00:07:19.094Z,7.40
2018-05-27T00:08:19.132Z,6.60
2018-05-27T00:09:19.168Z,7.30
2018-05-27T00:10:19.205Z,6.90
2018-05-27T00:11:19.242Z,7.10
2018-05-27T00:12:19.277Z,7.10
2018-05-27T00:13:19.315Z,7.20
2018-05-27T00:14:19.351Z,7.20
2018-05-27T00:15:19.389Z,6.90
2018-05-27T00:16:19.425Z,6.00
2018-05-27T00:17:19.464Z,7.10
2018-05-27T00:18:19.500Z,6.70
2018-05-27T00:19:19.539Z,6.70
2018-05-27T00:20:19.571Z,5.80
2018-05-27T00:21:19.609Z,6.00
2018-05-27T00:22:19.645Z,5.90
2018-05-27T00:23:19.682Z,6.20
2018-05-27T00:24:19.720Z,6.60
2018-05-27T00:25:19.756Z,6.20
2018-05-27T00:26:19.793Z,7.20
2018-05-27T00:27:19.830Z,6.20
2018-05-27T00:28:19.866Z,6.70
2018-05-27T00:29:19.907Z,7.30
2018-05-27T00:30:19.944Z,7.20
2018-05-27T00:31:19.977Z,7.50
2018-05-27T00:32:20.012Z,6.80
2018-05-27T00:33:20.050Z,7.00
2018-05-27T00:34:20.085Z,6.90
2018-05-27T00:35:20.123Z,6.50
2018-05-27T00:36:20.159Z,6.60
2018-05-27T00:37:20.196Z,6.30
2018-05-27T00:38:20.235Z,6.40
2018-05-27T00:39:20.273Z,6.60
2018-05-27T00:40:20.305Z,6.60
2018-05-27T00:41:20.343Z,6.80
2018-05-27T00:42:20.379Z,6.90
2018-05-27T00:43:20.417Z,6.60
2018-05-27T00:44:20.451Z,5.80
2018-05-27T00:45:20.489Z,6.70
2018-05-27T00:46:20.525Z,5.60
2018-05-27T00:47:20.562Z,6.30
2018-05-27T00:48:20.597Z,6.50
2018-05-27T00:49:20.635Z,6.40
2018-05-27T00:50:20.671Z,6.00
2018-05-27T00:51:20.707Z,5.70
2018-05-27T00:52:20.745Z,6.60
2018-05-27T00:53:20.783Z,6.40
2018-05-27T00:54:20.817Z,6.90
2018-05-27T00:55:20.855Z,6.70
2018-05-27T00:56:20.890Z,6.60
2018-05-27T00:57:20.928Z,7.20
2018-05-27T00:58:20.964Z,7.10
2018-05-27T00:59:21.000Z,6.80
2018-05-27T01:00:21.037Z,6.70
2018-05-27T01:01:21.073Z,7.50
2018-05-27T01:02:21.112Z,6.60
2018-05-27T01:03:21.147Z,7.40
2018-05-27T01:04:21.183Z,7.10
2018-05-27T01:05:21.222Z,7.60
2018-05-27T01:06:21.256Z,6.80
2018-05-27T01:07:21.293Z,6.90
2018-05-27T01:08:21.329Z,7.00
2018-05-27T01:09:21.365Z,6.90
2018-05-27T01:10:21.403Z,7.30
2018-05-27T01:11:21.442Z,6.60
2018-05-27T01:12:21.475Z,6.90
2018-05-27T01:13:21.512Z,6.50
2018-05-27T01:14:21.549Z,7.00
2018-05-27T01:15:21.587Z,7.10
2018-05-27T01:16:21.622Z,7.30
2018-05-27T01:17:21.657Z,6.50
2018-05-27T01:18:21.694Z,6.90
2018-05-27T01:19:21.731Z,6.40
2018-05-27T01:20:21.767Z,6.20
2018-05-27T01:21:21.802Z,6.40
2018-05-27T01:22:21.840Z,6.80
2018-05-27T01:23:21.877Z,6.20
2018-05-27T01:24:21.912Z,6.70
2018-05-27T01:25:21.954Z,6.40
2018-05-27T01:26:21.986Z,6.90
2018-05-27T01:27:22.023Z,7.20
2018-05-27T01:28:22.058Z,6.80
2018-05-27T01:29:22.095Z,6.40
2018-05-27T01:30:22.133Z,6.70
2018-05-27T01:31:22.169Z,6.80
2018-05-27T01:32:22.206Z,6.40
2018-05-27T01:33:22.243Z,6.80
2018-05-27T01:34:22.283Z,6.50
2018-05-27T01:35:22.316Z,6.50
2018-05-27T01:36:22.351Z,6.70
2018-05-27T01:37:22.389Z,6.40
2018-05-27T01:38:22.425Z,6.90
2018-05-27T01:39:22.463Z,6.70
2018-05-27T01:40:22.498Z,6.80
2018-05-27T01:41:22.535Z,6.80
2018-05-27T01:42:22.572Z,6.30
2018-05-27T01:43:22.612Z,5.90
2018-05-27T01:44:22.643Z,5.90
2018-05-27T01:45:22.684Z,6.70
2018-05-27T01:46:22.722Z,6.90
2018-05-27T01:47:22.754Z,6.40
2018-05-27T01:48:22.791Z,6.50
2018-05-27T01:49:22.827Z,6.60
2018-05-27T01:50:22.867Z,6.60
2018-05-27T01:51:22.902Z,6.90
2018-05-27T01:52:22.938Z,6.20
2018-05-27T01:53:22.975Z,5.80
2018-05-27T01:54:23.012Z,7.00
2018-05-27T01:55:23.050Z,6.40
2018-05-27T01:56:23.084Z,6.00
2018-05-27T01:57:23.120Z,6.20
2018-05-27T01:58:23.162Z,6.00
2018-05-27T01:59:23.193Z,6.40
2018-05-27T02:00:23.231Z,7.00
2018-05-27T02:01:23.268Z,6.30
2018-05-27T02:02:23.303Z,5.70
2018-05-27T02:03:23.345Z,6.80
2018-05-27T02:04:23.381Z,6.90
2018-05-27T02:05:23.418Z,6.50
2018-05-27T02:06:23.449Z,6.20
2018-05-27T02:07:23.487Z,6.40
2018-05-27T02:08:23.523Z,6.50
2018-05-27T02:09:23.561Z,6.90
2018-05-27T02:10:23.596Z,7.00
2018-05-27T02:11:23.633Z,6.50
2018-05-27T02:12:23.668Z,7.30
2018-05-27T02:13:23.705Z,7.10
2018-05-27T02:14:23.742Z,7.10
2018-05-27T02:15:23.778Z,6.60
2018-05-27T02:16:23.815Z,7.30
2018-05-27T02:17:23.850Z,6.70
2018-05-27T02:18:23.885Z,7.20
2018-05-27T02:19:23.922Z,7.40
2018-05-27T02:20:23.958Z,7.20
2018-05-27T02:21:24.000Z,7.60
2018-05-27T02:22:24.032Z,7.10
2018-05-27T02:23:24.068Z,7.80
2018-05-27T02:24:24.113Z,7.10
2018-05-27T02:25:24.139Z,7.70
2018-05-27T02:26:24.177Z,7.00
2018-05-27T02:27:24.820Z,7.50
2018-05-27T02:28:24.258Z,7.30
2018-05-27T02:29:24.285Z,7.60
2018-05-27T02:30:24.326Z,7.20
2018-05-27T02:31:24.359Z,7.70
2018-05-27T02:32:24.394Z,7.50
2018-05-27T02:33:24.442Z,7.00
2018-05-27T02:34:24.475Z,6.60
2018-05-27T02:35:24.504Z,7.60
2018-05-27T02:36:24.542Z,7.10
2018-05-27T02:37:24.579Z,6.90
2018-05-27T02:38:24.616Z,8.40
2018-05-27T02:39:24.657Z,7.60
2018-05-27T02:40:24.687Z,7.10
2018-05-27T02:41:24.720Z,7.00
2018-05-27T02:42:24.760Z,7.20
2018-05-27T02:43:24.808Z,7.70
2018-05-27T02:44:24.827Z,6.60
2018-05-27T02:45:24.862Z,7.10
2018-05-27T02:46:24.899Z,7.10
2018-05-27T02:47:24.935Z,7.00
2018-05-27T02:48:24.970Z,7.10
2018-05-27T02:49:25.009Z,7.10
2018-05-27T02:50:25.044Z,7.00
2018-05-27T02:51:25.078Z,6.80
2018-05-27T02:52:25.113Z,7.40
2018-05-27T02:53:25.150Z,7.70
2018-05-27T02:54:25.224Z,7.30
2018-05-27T02:55:25.223Z,7.70
2018-05-27T02:56:25.259Z,6.70
2018-05-27T02:57:25.294Z,7.50
2018-05-27T02:58:25.329Z,7.10
2018-05-27T02:59:25.366Z,7.80
2018-05-27T03:00:25.401Z,7.30
2018-05-27T03:01:25.444Z,6.50
2018-05-27T03:02:25.474Z,7.80
2018-05-27T03:03:25.512Z,7.40
2018-05-27T03:04:25.545Z,7.00
2018-05-27T03:05:25.581Z,7.80
2018-05-27T03:06:25.617Z,8.00
2018-05-27T03:07:25.653Z,7.90
2018-05-27T03:08:25.688Z,7.20
2018-05-27T03:09:25.724Z,8.10
2018-05-27T03:10:25.760Z,7.90
2018-05-27T03:11:25.795Z,7.90
2018-05-27T03:12:25.832Z,7.30
2018-05-27T03:13:25.867Z,7.10
2018-05-27T03:14:25.902Z,7.70
2018-05-27T03:15:25.939Z,7.50
2018-05-27T03:16:25.974Z,7.40
2018-05-27T03:17:26.010Z,7.10
2018-05-27T03:18:26.046Z,7.30
2018-05-27T03:19:26.082Z,7.90
2018-05-27T03:20:26.116Z,7.10
2018-05-27T03:21:26.153Z,7.10
2018-05-27T03:22:26.188Z,7.40
2018-05-27T03:23:26.226Z,7.50
2018-05-27T03:24:26.259Z,7.50
2018-05-27T03:25:26.294Z,6.60
2018-05-27T03:26:26.331Z,7.70
2018-05-27T03:27:26.367Z,7.90
2018-05-27T03:28:26.402Z,7.80
2018-05-27T03:29:26.438Z,6.30
2018-05-27T03:30:26.474Z,7.50
2018-05-27T03:31:26.518Z,7.70
2018-05-27T03:32:26.543Z,7.20
2018-05-27T03:33:26.580Z,7.50
2018-05-27T03:34:26.615Z,7.60
2018-05-27T03:35:26.652Z,8.00
2018-05-27T03:36:26.688Z,7.70
2018-05-27T03:37:26.721Z,7.40
2018-05-27T03:38:26.758Z,8.30
2018-05-27T03:39:26.794Z,7.80
2018-05-27T03:40:26.829Z,8.40
2018-05-27T03:41:26.868Z,7.60
2018-05-27T03:42:26.900Z,7.70
2018-05-27T03:43:26.937Z,7.60
2018-05-27T03:44:26.974Z,7.90
2018-05-27T03:45:27.008Z,7.70
2018-05-27T03:46:27.043Z,8.30
2018-05-27T03:47:27.080Z,7.40
2018-05-27T03:48:27.114Z,8.20
2018-05-27T03:49:27.149Z,8.30
2018-05-27T03:50:27.192Z,7.20
2018-05-27T03:51:27.222Z,7.90
2018-05-27T03:52:27.257Z,7.50
2018-05-27T03:53:27.291Z,7.80
2018-05-27T03:54:27.331Z,7.80
2018-05-27T03:55:27.363Z,7.90
2018-05-27T03:56:27.399Z,7.70
2018-05-27T03:57:27.435Z,7.00
2018-05-27T03:58:27.470Z,7.40
2018-05-27T03:59:27.505Z,8.00
2018-05-27T04:00:27.541Z,7.50
2018-05-27T04:01:27.578Z,8.00
2018-05-27T04:02:27.612Z,7.60
2018-05-27T04:03:27.648Z,7.50
2018-05-27T04:04:27.682Z,7.60
2018-05-27T04:05:27.719Z,8.00
2018-05-27T04:06:27.754Z,7.80
2018-05-27T04:07:27.790Z,7.90
2018-05-27T04:08:27.826Z,7.60
2018-05-27T04:09:27.861Z,7.90
2018-05-27T04:10:27.895Z,7.70
2018-05-27T04:11:27.935Z,8.40
2018-05-27T04:12:27.967Z,8.60
2018-05-27T04:13:28.003Z,8.00
2018-05-27T04:14:28.039Z,8.40
2018-05-27T04:15:28.074Z,7.90
2018-05-27T04:16:28.112Z,8.00
2018-05-27T04:17:28.145Z,7.50
2018-05-27T04:18:28.180Z,8.20
2018-05-27T04:19:28.217Z,8.70
2018-05-27T04:20:28.251Z,8.00
2018-05-27T04:21:28.312Z,8.30
2018-05-27T04:22:28.326Z,8.10
2018-05-27T04:23:28.360Z,8.40
2018-05-27T04:24:28.394Z,8.60
2018-05-27T04:25:28.430Z,8.00
2018-05-27T04:26:28.466Z,8.30
2018-05-27T04:27:28.501Z,8.80
2018-05-27T04:28:28.583Z,8.30
2018-05-27T04:29:28.573Z,8.30
2018-05-27T04:30:28.608Z,8.70
2018-05-27T04:31:28.643Z,8.70
2018-05-27T04:32:28.678Z,8.30
2018-05-27T04:33:28.721Z,7.90
2018-05-27T04:34:28.751Z,8.20
2018-05-27T04:35:28.786Z,7.50
2018-05-27T04:36:28.828Z,8.20
2018-05-27T04:37:28.858Z,7.90
2018-05-27T04:38:28.893Z,8.70
2018-05-27T04:39:28.930Z,7.50
2018-05-27T04:40:28.965Z,8.20
2018-05-27T04:41:29.000Z,8.30
2018-05-27T04:42:29.037Z,7.90
2018-05-27T04:43:29.072Z,9.40
2018-05-27T04:44:29.108Z,8.00
2018-05-27T04:45:29.144Z,8.10
2018-05-27T04:46:29.181Z,7.70
2018-05-27T04:47:29.217Z,8.40
2018-05-27T04:48:29.255Z,8.10
2018-05-27T04:49:29.288Z,7.80
2018-05-27T04:50:29.324Z,8.20
2018-05-27T04:51:29.360Z,7.90
2018-05-27T04:52:29.397Z,7.80
2018-05-27T04:53:29.432Z,7.70
2018-05-27T04:54:29.468Z,8.30
2018-05-27T04:55:29.505Z,7.30
2018-05-27T04:56:29.542Z,7.50
2018-05-27T04:57:29.578Z,7.10
2018-05-27T04:58:29.612Z,7.80
2018-05-27T04:59:29.649Z,7.30
2018-05-27T05:00:29.684Z,8.10
2018-05-27T05:01:29.721Z,7.40
2018-05-27T05:02:29.759Z,7.90
2018-05-27T05:03:29.795Z,7.20
2018-05-27T05:04:29.845Z,8.00
2018-05-27T05:05:29.867Z,8.40
2018-05-27T05:06:29.904Z,8.00
2018-05-27T05:07:29.941Z,7.90
2018-05-27T05:08:29.976Z,7.90
2018-05-27T05:09:30.031Z,7.60
2018-05-27T05:10:30.050Z,7.70
2018-05-27T05:11:30.087Z,8.40
2018-05-27T05:12:30.120Z,8.40
2018-05-27T05:13:30.159Z,8.50
2018-05-27T05:14:30.195Z,8.00
2018-05-27T05:15:30.232Z,8.10
2018-05-27T05:16:30.268Z,7.50
2018-05-27T05:17:30.306Z,8.20
2018-05-27T05:18:30.342Z,7.80
2018-05-27T05:19:30.380Z,7.40
2018-05-27T05:20:30.416Z,8.10
2018-05-27T05:21:30.909Z,7.60
2018-05-27T05:22:30.493Z,7.80
2018-05-27T05:23:30.526Z,7.30
2018-05-27T05:24:30.563Z,7.20
2018-05-27T05:25:30.598Z,7.50
2018-05-27T05:26:30.636Z,7.50
2018-05-27T05:27:30.678Z,6.90
2018-05-27T05:28:30.710Z,7.20
2018-05-27T05:29:30.746Z,7.00
2018-05-27T05:30:30.784Z,7.40
2018-05-27T05:31:30.821Z,6.50
2018-05-27T05:32:30.857Z,7.00
2018-05-27T05:33:30.894Z,6.70
2018-05-27T05:34:30.931Z,7.30
2018-05-27T05:35:30.970Z,6.10
2018-05-27T05:36:31.010Z,7.20
2018-05-27T05:37:31.044Z,6.40
2018-05-27T05:38:31.082Z,6.50
2018-05-27T05:39:31.119Z,6.50
2018-05-27T05:40:31.156Z,6.60
2018-05-27T05:41:31.193Z,6.80
2018-05-27T05:42:31.231Z,6.10
2018-05-27T05:43:31.272Z,6.40
2018-05-27T05:44:31.306Z,6.70
2018-05-27T05:45:31.344Z,6.00
2018-05-27T05:46:31.382Z,6.20
2018-05-27T05:47:31.421Z,6.10
2018-05-27T05:48:31.457Z,6.00
2018-05-27T05:49:31.495Z,6.70
2018-05-27T05:50:31.534Z,5.90
2018-05-27T05:51:31.572Z,6.10
2018-05-27T05:52:31.610Z,6.50
2018-05-27T05:53:31.652Z,6.10
2018-05-27T05:54:31.691Z,6.00
2018-05-27T05:55:31.723Z,5.90
2018-05-27T05:56:31.763Z,6.60
2018-05-27T05:57:31.808Z,6.80
2018-05-27T05:58:31.840Z,6.10
2018-05-27T05:59:31.878Z,6.10
2018-05-27T06:00:31.917Z,5.80
2018-05-27T06:01:31.955Z,5.90
2018-05-27T06:02:31.995Z,6.50
2018-05-27T06:03:32.033Z,5.90
2018-05-27T06:04:32.071Z,5.80
2018-05-27T06:05:32.109Z,6.30
2018-05-27T06:06:32.148Z,5.70
2018-05-27T06:07:32.186Z,6.40
2018-05-27T06:08:32.226Z,6.00
2018-05-27T06:09:32.265Z,5.60
2018-05-27T06:10:32.305Z,6.40
2018-05-27T06:11:32.347Z,6.00
2018-05-27T06:12:32.382Z,6.20
2018-05-27T06:13:32.473Z,5.70
2018-05-27T06:14:32.460Z,5.90
2018-05-27T06:15:32.501Z,6.00
2018-05-27T06:16:32.538Z,5.80
2018-05-27T06:17:32.579Z,5.80
2018-05-27T06:18:32.617Z,5.60
2018-05-27T06:19:32.666Z,6.60
2018-05-27T06:20:32.695Z,6.10
2018-05-27T06:21:32.735Z,6.10
2018-05-27T06:22:32.774Z,6.00
2018-05-27T06:23:32.813Z,6.10
2018-05-27T06:24:32.851Z,6.70
2018-05-27T06:25:32.891Z,6.50
2018-05-27T06:26:32.931Z,7.30
2018-05-27T06:27:32.972Z,8.80
2018-05-27T06:28:33.008Z,9.90
2018-05-27T06:29:33.048Z,9.90
2018-05-27T06:30:33.088Z,10.10
2018-05-27T06:31:33.126Z,10.10
2018-05-27T06:32:33.170Z,10.60
2018-05-27T06:33:33.203Z,10.10
2018-05-27T06:34:33.243Z,10.90
2018-05-27T06:35:33.283Z,10.00
2018-05-27T06:36:33.321Z,10.30
2018-05-27T06:37:33.361Z,9.70
2018-05-27T06:38:33.399Z,9.20
2018-05-27T06:39:33.439Z,9.40
2018-05-27T06:40:33.477Z,9.20
2018-05-27T06:41:33.515Z,8.70
2018-05-27T06:42:33.555Z,9.50
2018-05-27T06:43:33.595Z,9.20
2018-05-27T06:44:33.632Z,8.40
2018-05-27T06:45:33.672Z,8.70
2018-05-27T06:46:33.713Z,8.90
2018-05-27T06:47:33.751Z,8.80
2018-05-27T06:48:33.789Z,8.60
2018-05-27T06:49:33.833Z,8.90
2018-05-27T06:50:33.871Z,8.40
2018-05-27T06:51:33.909Z,8.80
2018-05-27T06:52:33.947Z,8.70
2018-05-27T06:53:33.991Z,9.70
2018-05-27T06:54:34.026Z,9.20
2018-05-27T06:55:34.072Z,8.90
2018-05-27T06:56:34.109Z,8.80
2018-05-27T06:57:34.146Z,9.10
2018-05-27T06:58:34.184Z,9.10
2018-05-27T06:59:34.226Z,7.80
2018-05-27T07:00:34.265Z,8.40
2018-05-27T07:01:34.305Z,8.80
2018-05-27T07:02:34.345Z,8.60
2018-05-27T07:03:34.429Z,8.50
2018-05-27T07:04:34.476Z,8.30
2018-05-27T07:05:34.466Z,7.80
2018-05-27T07:06:34.507Z,8.10
2018-05-27T07:07:34.547Z,8.80
2018-05-27T07:08:34.587Z,8.20
2018-05-27T07:09:34.626Z,8.20
2018-05-27T07:10:34.667Z,8.00
2018-05-27T07:11:34.755Z,7.80
2018-05-27T07:12:34.746Z,8.00
2018-05-27T07:13:34.788Z,8.00
2018-05-27T07:14:34.828Z,8.30
2018-05-27T07:15:34.871Z,7.30
2018-05-27T07:16:34.909Z,7.30
2018-05-27T07:17:34.948Z,7.80
2018-05-27T07:18:34.990Z,7.50
2018-05-27T07:19:35.033Z,7.30
2018-05-27T07:20:35.070Z,7.10
2018-05-27T07:21:35.112Z,6.90
2018-05-27T07:22:35.153Z,7.10
2018-05-27T07:23:35.195Z,6.70
2018-05-27T07:24:35.235Z,7.10
2018-05-27T07:25:35.277Z,7.20
2018-05-27T07:26:35.318Z,7.30
2018-05-27T07:27:35.359Z,6.70
2018-05-27T07:28:35.402Z,7.10
2018-05-27T07:29:35.440Z,6.70
2018-05-27T07:30:35.483Z,6.60
2018-05-27T07:31:35.524Z,6.50
2018-05-27T07:32:36.189Z,6.40
2018-05-27T07:34:35.696Z,6.40
2018-05-27T07:35:35.706Z,6.50
2018-05-27T07:36:36.362Z,5.80
2018-05-27T07:38:36.017Z,6.30
2018-05-27T07:39:35.875Z,6.10
2018-05-27T07:41:36.469Z,6.00
2018-05-27T07:43:36.023Z,6.20
2018-05-27T07:45:36.105Z,6.50
2018-05-27T07:46:36.209Z,6.60
2018-05-27T07:47:36.209Z,6.60
2018-05-27T07:48:36.230Z,6.00
2018-05-27T07:49:36.272Z,5.90
2018-05-27T07:50:36.331Z,6.40
2018-05-27T07:51:36.378Z,6.50
2018-05-27T07:52:36.775Z,7.00
2018-05-27T07:53:36.438Z,6.20
2018-05-27T07:54:36.500Z,6.10
2018-05-27T07:55:36.521Z,6.90
2018-05-27T07:56:36.563Z,7.80
2018-05-27T07:57:36.605Z,7.20
2018-05-27T07:58:36.658Z,6.50
2018-05-27T07:59:36.689Z,6.60
2018-05-27T08:00:36.729Z,7.20
2018-05-27T08:01:36.772Z,6.80
2018-05-27T08:02:36.818Z,6.80
2018-05-27T08:03:36.856Z,7.30
2018-05-27T08:04:36.897Z,7.30
2018-05-27T08:05:36.978Z,6.00
2018-05-27T08:06:37.056Z,7.20
2018-05-27T08:07:37.025Z,8.20
2018-05-27T08:08:37.066Z,8.40
2018-05-27T08:09:37.109Z,8.30
2018-05-27T08:10:37.150Z,7.70
2018-05-27T08:11:37.192Z,7.60
2018-05-27T08:12:37.234Z,8.30
2018-05-27T08:13:37.293Z,7.00
2018-05-27T08:14:37.319Z,7.10
2018-05-27T08:15:37.360Z,6.20
2018-05-27T08:16:37.404Z,7.40
2018-05-27T08:17:37.446Z,6.90
2018-05-27T08:18:37.489Z,6.90
2018-05-27T08:19:37.531Z,6.80
2018-05-27T08:20:37.572Z,6.40
2018-05-27T08:21:37.615Z,6.50
2018-05-27T08:22:37.678Z,6.30
2018-05-27T08:23:37.702Z,6.20
2018-05-27T08:24:37.742Z,6.60
2018-05-27T08:25:37.783Z,6.00
2018-05-27T08:26:37.827Z,6.20
2018-05-27T08:27:37.869Z,6.10
2018-05-27T08:28:37.912Z,6.20
2018-05-27T08:29:37.954Z,5.50
2018-05-27T08:30:37.997Z,5.40
2018-05-27T08:31:38.265Z,5.10
2018-05-27T08:32:38.081Z,5.40
2018-05-27T08:33:38.124Z,6.00
2018-05-27T08:34:38.167Z,5.30
2018-05-27T08:35:38.212Z,5.60
2018-05-27T08:36:38.453Z,5.40
2018-05-27T08:37:38.298Z,5.20
2018-05-27T08:38:38.338Z,5.30
2018-05-27T08:39:38.406Z,5.40
2018-05-27T08:40:38.423Z,5.40
2018-05-27T08:41:38.470Z,5.50
2018-05-27T08:42:38.509Z,4.60
2018-05-27T08:43:38.551Z,4.70
2018-05-27T08:44:38.594Z,5.50
2018-05-27T08:45:38.838Z,4.80
2018-05-27T08:46:38.680Z,4.80
2018-05-27T08:47:38.723Z,4.60
2018-05-27T08:49:38.809Z,4.60
2018-05-27T08:50:38.852Z,4.50
2018-05-27T08:51:38.897Z,4.90
2018-05-27T08:52:38.937Z,4.90
2018-05-27T08:53:38.981Z,5.10
2018-05-27T08:54:39.028Z,4.90
2018-05-27T08:55:39.071Z,5.00
2018-05-27T08:56:39.110Z,4.30
2018-05-27T08:57:39.154Z,5.20
2018-05-27T08:58:39.222Z,5.20
2018-05-27T08:59:39.241Z,5.00
2018-05-27T09:00:39.284Z,5.20
2018-05-27T09:01:39.328Z,4.60
2018-05-27T09:02:39.370Z,4.50
2018-05-27T09:03:39.460Z,4.70
2018-05-27T09:04:39.457Z,4.70
2018-05-27T09:05:39.501Z,4.50
2018-05-27T09:06:39.544Z,4.20
2018-05-27T09:07:39.589Z,4.70
2018-05-27T09:08:39.632Z,4.60
2018-05-27T09:09:39.675Z,5.00
2018-05-27T09:10:39.719Z,4.50
2018-05-27T09:11:39.764Z,4.50
2018-05-27T09:12:39.808Z,4.50
2018-05-27T09:13:39.850Z,4.80
2018-05-27T09:14:39.896Z,4.20
2018-05-27T09:15:39.941Z,4.10
2018-05-27T09:16:39.984Z,4.00
2018-05-27T09:17:40.030Z,3.60
2018-05-27T09:18:40.072Z,4.40
2018-05-27T09:19:40.117Z,4.10
2018-05-27T09:20:40.163Z,3.80
2018-05-27T09:21:40.207Z,3.70
2018-05-27T09:22:40.255Z,4.00
2018-05-27T09:23:40.296Z,4.50
2018-05-27T09:24:40.340Z,4.00
2018-05-27T09:25:40.383Z,4.40
2018-05-27T09:26:40.429Z,4.50
2018-05-27T09:27:40.472Z,4.20
2018-05-27T09:28:40.517Z,4.30
2018-05-27T09:29:40.562Z,4.40
2018-05-27T09:30:40.608Z,4.70
2018-05-27T09:31:40.652Z,4.20
2018-05-27T09:32:40.696Z,3.50
2018-05-27T09:33:40.741Z,3.50
2018-05-27T09:34:40.788Z,3.50
2018-05-27T09:35:40.831Z,3.60
2018-05-27T09:36:40.876Z,4.30
2018-05-27T09:37:40.921Z,4.20
2018-05-27T09:38:40.966Z,3.80
2018-05-27T09:39:41.011Z,4.30
2018-05-27T09:40:41.056Z,3.80
2018-05-27T09:41:41.101Z,3.80
2018-05-27T09:42:41.147Z,3.60
2018-05-27T09:43:41.194Z,4.50
2018-05-27T09:44:41.236Z,4.70
2018-05-27T09:45:41.282Z,4.80
2018-05-27T09:46:41.327Z,4.70
2018-05-27T09:47:41.373Z,4.70
2018-05-27T09:48:41.418Z,5.30
2018-05-27T09:49:41.464Z,5.10
2018-05-27T09:50:41.509Z,5.30
2018-05-27T09:51:41.556Z,5.00
2018-05-27T09:52:41.600Z,5.10
2018-05-27T09:53:41.645Z,5.20
2018-05-27T09:54:41.690Z,5.50
2018-05-27T09:55:41.737Z,5.10
2018-05-27T09:56:41.782Z,5.40
2018-05-27T09:57:41.828Z,5.50
2018-05-27T09:58:41.872Z,5.10
2018-05-27T09:59:41.919Z,5.30
2018-05-27T10:00:41.965Z,4.90
2018-05-27T10:01:42.011Z,5.20
2018-05-27T10:02:42.054Z,5.20
2018-05-27T10:03:42.104Z,5.10
2018-05-27T10:04:42.145Z,5.70
2018-05-27T10:05:42.192Z,5.40
2018-05-27T10:06:42.238Z,5.10
2018-05-27T10:07:42.284Z,5.00
2018-05-27T10:08:42.329Z,4.90
2018-05-27T10:09:42.375Z,5.10
2018-05-27T10:10:42.421Z,5.40
2018-05-27T10:11:42.501Z,4.90
2018-05-27T10:12:42.527Z,5.10
2018-05-27T10:13:42.579Z,4.80
2018-05-27T10:14:42.605Z,5.00
2018-05-27T10:15:42.649Z,4.80
2018-05-27T10:16:42.695Z,4.90
2018-05-27T10:17:42.741Z,5.40
2018-05-27T10:18:42.787Z,5.00
2018-05-27T10:19:42.832Z,4.50
2018-05-27T10:20:42.882Z,4.90
2018-05-27T10:21:42.923Z,4.80
2018-05-27T10:22:42.970Z,4.50
2018-05-27T10:23:43.017Z,5.00
2018-05-27T10:24:43.061Z,4.40
2018-05-27T10:25:43.107Z,4.30
2018-05-27T10:26:43.152Z,3.90
2018-05-27T10:27:43.199Z,4.30
2018-05-27T10:28:43.243Z,3.60
2018-05-27T10:29:43.289Z,3.70
2018-05-27T10:30:43.335Z,4.00
2018-05-27T10:31:43.386Z,4.40
2018-05-27T10:32:43.469Z,4.70
2018-05-27T10:33:43.480Z,4.80
2018-05-27T10:34:43.524Z,4.20
2018-05-27T10:35:43.572Z,4.10
2018-05-27T10:36:43.618Z,5.10
2018-05-27T10:37:43.667Z,4.60
2018-05-27T10:38:43.716Z,4.60
2018-05-27T10:39:43.765Z,5.20
2018-05-27T10:40:43.816Z,5.30
2018-05-27T10:41:43.868Z,5.10
2018-05-27T10:42:43.918Z,5.00
2018-05-27T10:43:43.969Z,4.70
2018-05-27T10:44:44.019Z,4.30
2018-05-27T10:45:44.070Z,4.80
2018-05-27T10:46:44.123Z,4.50
2018-05-27T10:47:44.176Z,4.20
2018-05-27T10:48:44.228Z,4.00
2018-05-27T10:49:44.283Z,3.80
2018-05-27T10:50:44.334Z,4.20
2018-05-27T10:51:44.388Z,4.50
2018-05-27T10:52:44.441Z,3.90
2018-05-27T10:53:44.498Z,3.80
2018-05-27T10:54:44.549Z,3.80
2018-05-27T10:55:44.603Z,4.00
2018-05-27T10:56:44.657Z,3.90
2018-05-27T10:57:44.712Z,3.50
2018-05-27T10:58:44.766Z,3.30
2018-05-27T10:59:44.822Z,3.70
2018-05-27T11:00:44.877Z,4.20
2018-05-27T11:01:44.932Z,3.90
2018-05-27T11:02:44.988Z,4.20
2018-05-27T11:03:45.047Z,4.00
2018-05-27T11:04:45.098Z,3.90
2018-05-27T11:05:45.204Z,3.80
2018-05-27T11:06:45.209Z,4.20
2018-05-27T11:07:45.267Z,3.30
2018-05-27T11:08:45.322Z,3.50
2018-05-27T11:09:45.379Z,4.10
2018-05-27T11:10:45.438Z,3.90
2018-05-27T11:13:45.831Z,3.60
2018-05-27T11:15:45.724Z,4.00
2018-05-27T11:16:45.799Z,3.50
2018-05-27T11:17:45.834Z,3.60
2018-05-27T11:21:46.063Z,3.00
2018-05-27T11:22:46.121Z,3.20
2018-05-27T11:23:46.180Z,2.90
2018-05-27T11:25:46.295Z,3.40
2018-05-27T11:26:46.354Z,3.30
2018-05-27T11:27:46.417Z,3.10
2018-05-27T11:29:46.528Z,3.40
2018-05-27T11:30:46.589Z,2.80
2018-05-27T11:31:46.646Z,2.70
2018-05-27T11:32:46.705Z,2.60
2018-05-27T11:33:46.768Z,2.80
2018-05-27T11:34:46.821Z,2.90
2018-05-27T11:35:46.885Z,2.70
2018-05-27T11:36:46.939Z,2.60
2018-05-27T11:37:46.999Z,2.60
2018-05-27T11:38:47.058Z,2.50
2018-05-27T11:39:47.117Z,2.20
2018-05-27T11:40:47.175Z,2.30
2018-05-27T11:41:47.234Z,2.20
2018-05-27T11:42:47.293Z,2.50
2018-05-27T11:43:47.352Z,2.70
2018-05-27T11:44:47.409Z,2.40
2018-05-27T11:45:47.468Z,2.50
2018-05-27T11:46:47.527Z,2.70
2018-05-27T11:47:47.585Z,2.40
2018-05-27T11:48:47.644Z,2.80
2018-05-27T11:49:47.703Z,2.70
2018-05-27T11:50:47.770Z,3.20
2018-05-27T11:51:47.821Z,2.90
2018-05-27T11:52:47.877Z,2.60
2018-05-27T11:53:47.937Z,2.40
2018-05-27T11:54:47.996Z,2.60
2018-05-27T11:55:48.055Z,2.90
2018-05-27T11:56:48.112Z,3.10
2018-05-27T11:57:48.169Z,3.00
2018-05-27T11:58:48.232Z,3.00
2018-05-27T11:59:48.288Z,3.10
2018-05-27T12:00:48.344Z,3.00
2018-05-27T12:01:48.430Z,2.90
2018-05-27T12:02:48.461Z,2.60
2018-05-27T12:03:48.517Z,2.90
2018-05-27T12:04:48.574Z,3.20
2018-05-27T12:05:48.633Z,2.50
2018-05-27T12:06:48.691Z,3.00
2018-05-27T12:07:48.749Z,2.80
2018-05-27T12:08:48.802Z,2.80
2018-05-27T12:09:48.860Z,2.20
2018-05-27T12:10:48.916Z,2.80
2018-05-27T12:11:49.022Z,2.60
2018-05-27T12:12:49.029Z,2.90
2018-05-27T12:13:49.086Z,2.60
2018-05-27T12:14:49.142Z,2.10
2018-05-27T12:15:49.200Z,2.50
2018-05-27T12:16:49.254Z,2.50
2018-05-27T12:17:49.311Z,2.40
2018-05-27T12:18:49.365Z,2.50
2018-05-27T12:19:49.422Z,2.60
2018-05-27T12:20:49.477Z,2.50
2018-05-27T12:21:49.533Z,2.60
2018-05-27T12:22:49.589Z,2.40
2018-05-27T12:23:49.644Z,2.70
2018-05-27T12:24:49.698Z,2.50
2018-05-27T12:25:49.755Z,2.40
2018-05-27T12:26:49.809Z,2.40
2018-05-27T12:27:49.863Z,2.60
2018-05-27T12:28:49.918Z,3.20
2018-05-27T12:29:49.992Z,2.30
2018-05-27T12:30:50.031Z,2.70
2018-05-27T12:31:50.083Z,3.00
2018-05-27T12:32:50.136Z,2.70
2018-05-27T12:33:50.192Z,2.70
2018-05-27T12:34:50.247Z,3.10
2018-05-27T12:35:50.301Z,2.90
2018-05-27T12:36:50.359Z,3.20
2018-05-27T12:37:50.408Z,2.60
2018-05-27T12:38:50.464Z,3.00
2018-05-27T12:39:50.519Z,2.90
2018-05-27T12:40:50.578Z,3.50
2018-05-27T12:41:50.627Z,3.30
2018-05-27T12:42:50.713Z,3.00
2018-05-27T12:43:50.736Z,3.30
2018-05-27T12:44:50.787Z,2.90
2018-05-27T12:45:50.845Z,3.60
2018-05-27T12:46:50.896Z,3.30
2018-05-27T12:47:50.950Z,3.50
2018-05-27T12:48:51.003Z,3.60
2018-05-27T12:49:51.057Z,3.20
2018-05-27T12:50:51.110Z,3.50
2018-05-27T12:51:51.170Z,3.60
2018-05-27T12:52:51.220Z,3.00
2018-05-27T12:53:51.273Z,3.10
2018-05-27T12:54:51.365Z,3.40
2018-05-27T12:55:51.381Z,3.20
2018-05-27T12:56:51.434Z,3.20
2018-05-27T12:57:51.491Z,3.30
2018-05-27T12:58:51.547Z,3.40
2018-05-27T12:59:51.597Z,3.20
2018-05-27T13:00:51.650Z,3.00
2018-05-27T13:01:51.704Z,3.20
2018-05-27T13:02:51.759Z,3.30
2018-05-27T13:03:51.812Z,3.30
2018-05-27T13:04:51.865Z,3.30
2018-05-27T13:05:51.956Z,3.00
2018-05-27T13:06:51.975Z,3.30
2018-05-27T13:07:52.031Z,3.50
2018-05-27T13:08:52.083Z,3.40
2018-05-27T13:09:52.137Z,3.20
2018-05-27T13:10:52.193Z,3.50
2018-05-27T13:11:52.246Z,3.60
2018-05-27T13:12:52.301Z,3.30
2018-05-27T13:13:52.355Z,4.00
2018-05-27T13:14:52.411Z,3.30
2018-05-27T13:15:52.464Z,4.00
2018-05-27T13:16:52.681Z,3.90
2018-05-27T13:17:52.575Z,3.30
2018-05-27T13:18:52.625Z,3.50
2018-05-27T13:19:52.680Z,3.60
2018-05-27T13:20:52.733Z,4.70
2018-05-27T13:21:52.789Z,3.70
2018-05-27T13:22:52.843Z,3.90
2018-05-27T13:23:52.893Z,4.20
2018-05-27T13:24:52.946Z,4.10
2018-05-27T13:25:52.999Z,4.20
2018-05-27T13:26:53.052Z,4.30
2018-05-27T13:27:53.103Z,4.50
2018-05-27T13:28:53.155Z,4.60
2018-05-27T13:29:53.208Z,3.60
2018-05-27T13:30:53.259Z,4.50
2018-05-27T13:31:53.311Z,4.50
2018-05-27T13:32:53.359Z,4.70